createdAt,value
2023-04-17T00:00:02.648Z,6.88
2023-04-17T00:05:02.303Z,6.88
2023-04-17T00:10:03.135Z,6.84
2023-04-17T00:15:02.950Z,6.82
2023-04-17T00:20:02.731Z,6.78
2023-04-17T00:25:02.416Z,6.74
2023-04-17T00:30:03.149Z,6.73
2023-04-17T00:35:02.898Z,6.7
2023-04-17T00:40:02.874Z,6.68
2023-04-17T00:45:02.595Z,6.67
2023-04-17T00:50:02.300Z,6.65
2023-04-17T00:55:03.827Z,6.64
2023-04-17T01:00:03.098Z,6.61
2023-04-17T01:05:02.824Z,6.6
2023-04-17T01:10:02.650Z,6.61
2023-04-17T01:15:02.951Z,6.59
2023-04-17T01:20:02.993Z,6.57
2023-04-17T01:25:02.702Z,6.58
2023-04-17T01:30:02.678Z,6.56
2023-04-17T01:35:03.171Z,6.56
2023-04-17T01:40:03.186Z,6.53
2023-04-17T01:45:02.958Z,6.53
2023-04-17T01:50:02.735Z,6.52
2023-04-17T01:55:03.289Z,6.51
2023-04-17T02:00:03.216Z,6.5
2023-04-17T02:05:02.314Z,6.48
2023-04-17T02:10:03.019Z,6.46
2023-04-17T02:15:02.762Z,6.46
2023-04-17T02:20:02.591Z,6.46
2023-04-17T02:25:02.396Z,6.45
2023-04-17T02:30:02.293Z,6.42
2023-04-17T02:35:02.918Z,6.41
2023-04-17T02:40:02.904Z,6.39
2023-04-17T02:45:02.993Z,6.39
2023-04-17T02:50:02.688Z,6.38
2023-04-17T02:55:03.555Z,6.36
2023-04-17T03:00:02.326Z,6.36
2023-04-17T03:05:02.997Z,6.33
2023-04-17T03:10:02.817Z,6.31
2023-04-17T03:15:02.515Z,6.29
2023-04-17T03:20:02.256Z,6.27
2023-04-17T03:25:03.005Z,6.27
2023-04-17T03:30:02.806Z,6.24
2023-04-17T03:35:02.493Z,6.23
2023-04-17T03:40:02.287Z,6.21
2023-04-17T03:45:02.952Z,6.18
2023-04-17T03:50:02.838Z,6.13
2023-04-17T03:55:02.856Z,6.1
2023-04-17T04:00:03.192Z,6.07
2023-04-17T04:05:02.814Z,6.04
2023-04-17T04:10:02.574Z,6.02
2023-04-17T04:15:02.528Z,6.01
2023-04-17T04:20:02.356Z,6.01
2023-04-17T04:25:03.307Z,5.99
2023-04-17T04:30:02.985Z,5.97
2023-04-17T04:35:02.960Z,5.96
2023-04-17T04:40:02.424Z,5.97
2023-04-17T04:45:02.450Z,5.95
2023-04-17T04:50:03.157Z,5.91
2023-04-17T04:55:04.182Z,5.9
2023-04-17T05:00:02.735Z,5.9
2023-04-17T05:05:02.974Z,5.91
2023-04-17T05:10:02.671Z,5.9
2023-04-17T05:15:02.445Z,5.91
2023-04-17T05:20:03.178Z,5.91
2023-04-17T05:25:02.830Z,5.93
2023-04-17T05:30:02.708Z,5.89
2023-04-17T05:35:02.897Z,5.97
2023-04-17T05:40:02.846Z,6.01
2023-04-17T05:45:02.557Z,6.1
2023-04-17T05:50:02.565Z,6.18
2023-04-17T05:55:02.835Z,6.32
2023-04-17T06:00:03.136Z,6.31
2023-04-17T06:05:03.001Z,6.33
2023-04-17T06:10:03.016Z,6.34
2023-04-17T06:15:02.618Z,6.2
2023-04-17T06:20:02.231Z,6.3
2023-04-17T06:25:02.969Z,6.3
2023-04-17T06:30:02.814Z,6.3
2023-04-17T06:35:02.708Z,6.57
2023-04-17T06:40:02.432Z,6.49
2023-04-17T06:45:02.293Z,6.32
2023-04-17T06:50:02.920Z,6.65
2023-04-17T06:55:03.123Z,6.97
2023-04-17T07:00:02.395Z,7.04
2023-04-17T07:05:03.063Z,6.68
2023-04-17T07:10:02.928Z,7.09
2023-04-17T07:15:02.809Z,7.47
2023-04-17T07:20:02.635Z,7.66
2023-04-17T07:25:02.997Z,7.17
2023-04-17T07:30:02.544Z,6.9
2023-04-17T07:35:02.232Z,6.9
2023-04-17T07:40:02.976Z,7.18
2023-04-17T07:45:02.755Z,7.32
2023-04-17T07:50:02.578Z,7.17
2023-04-17T07:55:03.724Z,7.44
2023-04-17T08:00:03.416Z,8.11
2023-04-17T08:05:02.326Z,7.45
2023-04-17T08:10:03.105Z,7.82
2023-04-17T08:15:02.875Z,7.69
2023-04-17T08:20:02.572Z,8.15
2023-04-17T08:25:02.439Z,8.32
2023-04-17T08:30:02.214Z,8.15
2023-04-17T08:35:03.163Z,7.82
2023-04-17T08:40:02.676Z,7.65
2023-04-17T08:45:02.700Z,7.53
2023-04-17T08:50:02.642Z,7.7
2023-04-17T08:55:04.339Z,8.1
2023-04-17T09:00:02.904Z,8.68
2023-04-17T09:05:02.805Z,8.98
2023-04-17T09:10:02.316Z,10.08
2023-04-17T09:15:03.068Z,10.19
2023-04-17T09:20:02.971Z,8.92
2023-04-17T09:25:02.648Z,8.53
2023-04-17T09:30:02.522Z,8.42
2023-04-17T09:35:02.197Z,9.02
2023-04-17T09:40:02.877Z,9.33
2023-04-17T09:45:02.604Z,9.4
2023-04-17T09:50:02.319Z,8.89
2023-04-17T09:55:03.963Z,8.5
2023-04-17T10:00:02.664Z,8.72
2023-04-17T10:05:02.555Z,8.67
2023-04-17T10:10:02.406Z,10.28
2023-04-17T10:15:03.173Z,10.76
2023-04-17T10:20:02.847Z,9.24
2023-04-17T10:25:02.557Z,9.31
2023-04-17T10:30:02.345Z,9.69
2023-04-17T10:35:03.114Z,12.49
2023-04-17T10:40:02.904Z,12.16
2023-04-17T10:45:02.797Z,11.66
2023-04-17T10:50:02.906Z,10.02
2023-04-17T10:55:04.119Z,10.05
2023-04-17T11:00:02.648Z,11.56
2023-04-17T11:05:02.545Z,10.83
2023-04-17T11:10:02.662Z,11.44
2023-04-17T11:15:02.438Z,11.25
2023-04-17T11:20:02.318Z,10.84
2023-04-17T11:25:03.058Z,12.35
2023-04-17T11:30:02.840Z,12.06
2023-04-17T11:35:02.516Z,10.93
2023-04-17T11:40:02.579Z,11.58
2023-04-17T11:45:04.150Z,12.96
2023-04-17T11:50:02.632Z,13.76
2023-04-17T11:55:02.986Z,14.01
2023-04-17T12:00:03.218Z,11.56
2023-04-17T12:05:03.451Z,10.74
2023-04-17T12:10:02.949Z,11.95
2023-04-17T12:15:02.693Z,13.3
2023-04-17T12:20:02.420Z,12.7
2023-04-17T12:25:03.097Z,13.24
2023-04-17T12:30:03.058Z,12.95
2023-04-17T12:35:02.664Z,12.85
2023-04-17T12:40:02.423Z,12.61
2023-04-17T12:45:03.116Z,11.37
2023-04-17T12:50:02.818Z,12.4
2023-04-17T12:55:03.430Z,12.2
2023-04-17T13:00:02.317Z,11.07
2023-04-17T13:05:02.941Z,11.99
2023-04-17T13:10:02.888Z,12.22
2023-04-17T13:15:02.772Z,12.16
2023-04-17T13:20:02.472Z,11.77
2023-04-17T13:25:02.480Z,10.61
2023-04-17T13:30:03.066Z,10.48
2023-04-17T13:35:02.822Z,10.98
2023-04-17T13:40:02.851Z,12.34
2023-04-17T13:45:02.407Z,11.92
2023-04-17T13:50:03.024Z,10.5
2023-04-17T13:55:03.571Z,10.52
2023-04-17T14:00:02.548Z,10.24
2023-04-17T14:05:02.432Z,10.42
2023-04-17T14:10:03.066Z,11.06
2023-04-17T14:15:02.755Z,10.55
2023-04-17T14:20:02.548Z,10.97
2023-04-17T14:25:02.261Z,10.23
2023-04-17T14:30:03.223Z,10.8
2023-04-17T14:35:02.841Z,10.47
2023-04-17T14:40:02.513Z,10.24
2023-04-17T14:45:02.448Z,11.35
2023-04-17T14:50:03.363Z,11.22
2023-04-17T14:55:03.344Z,9.93
2023-04-17T15:00:02.936Z,10.42
2023-04-17T15:05:02.631Z,10.32
2023-04-17T15:10:02.614Z,9.84
2023-04-17T15:15:02.509Z,10.27
2023-04-17T15:20:02.348Z,10.96
2023-04-17T15:25:02.235Z,9.68
2023-04-17T15:30:03.133Z,9.78
2023-04-17T15:35:02.816Z,8.99
2023-04-17T15:40:02.927Z,9.08
2023-04-17T15:45:02.758Z,9.24
2023-04-17T15:50:02.637Z,8.54
2023-04-17T15:55:03.658Z,8.58
2023-04-17T16:00:02.965Z,8.64
2023-04-17T16:05:02.651Z,8.39
2023-04-17T16:10:02.387Z,8.62
2023-04-17T16:15:03.123Z,8.96
2023-04-17T16:20:02.869Z,8.42
2023-04-17T16:25:02.737Z,8.04
2023-04-17T16:30:07.736Z,8.12
2023-04-17T16:35:02.528Z,7.93
2023-04-17T16:40:02.436Z,7.82
2023-04-17T16:45:02.342Z,7.78
2023-04-17T16:50:03.162Z,7.42
2023-04-17T16:55:08.528Z,7.4
2023-04-17T17:00:02.515Z,7.27
2023-04-17T17:05:02.558Z,7.29
2023-04-17T17:10:02.549Z,7.28
2023-04-17T17:15:02.383Z,7.21
2023-04-17T17:20:02.287Z,7.11
2023-04-17T17:25:03.104Z,6.94
2023-04-17T17:30:02.976Z,6.9
2023-04-17T17:35:02.654Z,6.87
2023-04-17T17:40:02.437Z,6.82
2023-04-17T17:45:02.260Z,6.78
2023-04-17T17:50:02.182Z,6.71
2023-04-17T17:55:03.639Z,6.68
2023-04-17T18:00:03.224Z,6.7
2023-04-17T18:05:03.336Z,6.76
2023-04-17T18:10:02.896Z,6.78
2023-04-17T18:15:02.667Z,6.73
2023-04-17T18:20:02.353Z,6.68
2023-04-17T18:25:02.248Z,6.63
2023-04-17T18:30:02.281Z,6.54
2023-04-17T18:35:02.901Z,6.46
2023-04-17T18:40:02.575Z,6.42
2023-04-17T18:45:02.535Z,6.39
2023-04-17T18:50:03.154Z,6.4
2023-04-17T18:55:03.623Z,6.38
2023-04-17T19:00:02.823Z,6.36
2023-04-17T19:05:02.655Z,6.33
2023-04-17T19:10:02.320Z,6.33
2023-04-17T19:15:03.107Z,6.35
2023-04-17T19:20:02.944Z,6.38
2023-04-17T19:25:02.705Z,6.37
2023-04-17T19:30:02.452Z,6.3
2023-04-17T19:35:02.507Z,6.2
2023-04-17T19:40:04.217Z,6.08
2023-04-17T19:45:02.647Z,6.01
2023-04-17T19:50:02.345Z,5.94
2023-04-17T19:55:03.640Z,5.9
2023-04-17T20:00:02.917Z,5.83
2023-04-17T20:05:02.660Z,5.8
2023-04-17T20:10:02.657Z,5.78
2023-04-17T20:15:02.575Z,5.75
2023-04-17T20:20:02.427Z,5.74
2023-04-17T20:25:02.515Z,5.72
2023-04-17T20:30:02.492Z,5.72
2023-04-17T20:35:02.989Z,5.75
2023-04-17T20:40:03.038Z,5.77
2023-04-17T20:45:02.836Z,5.8
2023-04-17T20:50:02.572Z,5.79
2023-04-17T20:55:03.527Z,5.78
2023-04-17T21:00:03.096Z,5.8
2023-04-17T21:05:02.744Z,5.82
2023-04-17T21:10:02.445Z,5.85
2023-04-17T21:15:03.196Z,5.87
2023-04-17T21:20:02.958Z,5.87
2023-04-17T21:25:02.849Z,5.88
2023-04-17T21:30:02.672Z,5.9
2023-04-17T21:35:02.319Z,5.93
2023-04-17T21:40:03.067Z,5.96
2023-04-17T21:45:02.825Z,5.95
2023-04-17T21:50:02.995Z,5.98
2023-04-17T21:55:03.760Z,5.99
2023-04-17T22:00:04.630Z,6
2023-04-17T22:05:02.500Z,6.01
2023-04-17T22:10:02.753Z,6.02
2023-04-17T22:15:02.545Z,6.02
2023-04-17T22:20:02.649Z,6.04
2023-04-17T22:25:02.523Z,6.06
2023-04-17T22:30:03.207Z,6.07
2023-04-17T22:35:02.879Z,6.12
2023-04-17T22:40:02.622Z,6.14
2023-04-17T22:45:02.423Z,6.15
2023-04-17T22:50:03.204Z,6.17
2023-04-17T22:55:03.652Z,6.19
2023-04-17T23:00:02.595Z,6.21
2023-04-17T23:05:02.644Z,6.27
2023-04-17T23:10:03.023Z,6.3
2023-04-17T23:15:02.851Z,6.35
2023-04-17T23:20:02.633Z,6.36
2023-04-17T23:25:02.805Z,6.37
2023-04-17T23:30:02.600Z,6.39
2023-04-17T23:35:02.489Z,6.39
2023-04-17T23:40:02.413Z,6.38
2023-04-17T23:45:03.136Z,6.39
2023-04-17T23:50:02.822Z,6.39
2023-04-17T23:55:03.281Z,6.4
